Time;durP1;ratioP1;P1;durP2;ratioP2;P2;SDS_P1;SDS_P2;PMS_P1;PMS_P2;Temp;Humidity;BMP_temperature;BMP_pressure;BME280_temperature;BME280_humidity;BME280_pressure;Samples;Min_cycle;Max_cycle;Signal;HPM_P1;HPM_P2
2023/02/22 00:01:00;;;;;;;165.65;44.58;;;;;;;5.79;100.00;101260.47;5017292;28;20038;-78
2023/02/22 00:03:31;;;;;;;157.43;45.60;;;;;;;5.62;100.00;101266.06;4994418;28;20030;-78
2023/02/22 00:06:05;;;;;;;152.20;44.22;;;;;;;5.59;100.00;101264.50;4990558;28;20068;-78
2023/02/22 00:08:34;;;;;;;164.73;44.67;;;;;;;5.66;100.00;101257.97;5013749;28;20030;-78
2023/02/22 00:11:10;;;;;;;168.88;46.70;;;;;;;5.60;100.00;101258.44;5003956;28;20033;-78
2023/02/22 00:13:37;;;;;;;166.82;47.58;;;;;;;5.68;100.00;101255.28;5019194;28;20029;-78
2023/02/22 00:16:03;;;;;;;163.45;46.00;;;;;;;5.70;100.00;101260.34;5013786;28;20037;-78
2023/02/22 00:18:29;;;;;;;163.05;43.88;;;;;;;5.65;100.00;101255.50;5033867;28;20033;-79
2023/02/22 00:20:59;;;;;;;167.95;47.03;;;;;;;5.71;100.00;101251.66;5009544;28;20103;-79
2023/02/22 00:23:27;;;;;;;166.70;44.97;;;;;;;5.84;100.00;101253.25;5012064;28;20039;-78
2023/02/22 00:25:54;;;;;;;158.88;44.15;;;;;;;5.77;100.00;101246.91;5011034;28;20033;-77
2023/02/22 00:28:19;;;;;;;152.95;39.92;;;;;;;5.80;100.00;101238.13;5010062;28;20507;-77
2023/02/22 00:30:47;;;;;;;150.23;40.15;;;;;;;5.73;100.00;101242.09;4995151;28;20034;-78
2023/02/22 00:33:14;;;;;;;140.43;40.55;;;;;;;5.71;100.00;101238.81;4999440;28;20108;-78
2023/02/22 00:35:40;;;;;;;148.43;40.40;;;;;;;5.72;100.00;101241.28;5011193;28;20044;-77
2023/02/22 00:38:06;;;;;;;148.55;39.78;;;;;;;5.68;100.00;101239.84;5011202;28;20032;-78
2023/02/22 00:40:34;;;;;;;146.70;40.42;;;;;;;5.72;100.00;101230.97;5011735;28;20093;-79
2023/02/22 00:43:14;;;;;;;155.82;40.90;;;;;;;5.68;100.00;101244.19;5063687;28;20654;-72
2023/02/22 00:45:40;;;;;;;153.70;42.25;;;;;;;5.60;100.00;101237.84;5033133;28;20503;-72
2023/02/22 00:48:07;;;;;;;133.90;36.70;;;;;;;5.63;100.00;101236.78;5007796;28;20065;-73
2023/02/22 00:50:33;;;;;;;129.73;35.35;;;;;;;5.66;100.00;101229.69;5003626;28;20038;-72
2023/02/22 00:53:02;;;;;;;111.63;36.08;;;;;;;5.53;100.00;101230.69;5004939;28;20060;-72
2023/02/22 00:55:33;;;;;;;129.48;34.33;;;;;;;5.49;100.00;101226.72;5021531;28;20037;-72
2023/02/22 00:58:00;;;;;;;131.00;37.65;;;;;;;5.42;100.00;101232.28;5019639;28;20033;-72
2023/02/22 01:00:37;;;;;;;122.53;33.47;;;;;;;5.41;100.00;101235.00;5019932;28;20526;-72
2023/02/22 01:03:04;;;;;;;133.30;36.35;;;;;;;5.31;100.00;101228.88;5023242;28;20777;-72
2023/02/22 01:05:30;;;;;;;133.00;34.58;;;;;;;5.29;100.00;101228.16;5014359;28;20053;-72
2023/02/22 01:07:59;;;;;;;115.47;34.75;;;;;;;5.28;100.00;101229.91;5023364;28;20026;-73
2023/02/22 01:10:27;;;;;;;135.15;36.35;;;;;;;5.35;100.00;101231.13;5015999;28;20102;-72
2023/02/22 01:12:53;;;;;;;143.65;36.05;;;;;;;5.41;100.00;101235.00;5021031;28;20032;-72
2023/02/22 01:15:20;;;;;;;158.95;38.90;;;;;;;5.39;100.00;101224.00;5006066;28;20045;-72
2023/02/22 01:17:48;;;;;;;146.10;36.38;;;;;;;5.39;100.00;101221.44;5020069;28;20025;-72
2023/02/22 01:20:15;;;;;;;128.50;35.83;;;;;;;5.42;100.00;101224.56;5020224;28;20045;-73
2023/02/22 01:22:42;;;;;;;141.57;36.25;;;;;;;5.36;100.00;101217.31;5023412;28;20456;-72
2023/02/22 01:25:10;;;;;;;114.68;33.17;;;;;;;5.28;100.00;101211.09;5018220;28;20119;-73
2023/02/22 01:27:37;;;;;;;117.45;35.00;;;;;;;5.36;100.00;101212.16;5020197;28;20076;-72
2023/02/22 01:30:07;;;;;;;125.07;35.05;;;;;;;5.28;100.00;101204.19;5005202;28;20112;-73
2023/02/22 01:32:39;;;;;;;113.53;33.53;;;;;;;5.28;100.00;101201.63;5016696;28;20076;-72
2023/02/22 01:35:09;;;;;;;128.82;34.03;;;;;;;5.28;100.00;101204.19;5009265;28;20041;-73
2023/02/22 01:37:35;;;;;;;123.43;35.15;;;;;;;5.27;100.00;101202.56;5016741;28;20018;-72
2023/02/22 01:40:02;;;;;;;125.72;36.50;;;;;;;5.29;100.00;101197.31;5002251;28;20088;-73
2023/02/22 01:42:28;;;;;;;115.05;32.90;;;;;;;5.30;100.00;101193.81;5001418;28;20026;-73
2023/02/22 01:45:42;;;;;;;122.63;34.47;;;;;;;5.29;100.00;101192.16;5004952;28;20560;-72
2023/02/22 01:48:18;;;;;;;;;;;;;;;5.30;100.00;101181.75;5015883;28;20038;-73
2023/02/22 01:50:55;;;;;;;108.13;31.52;;;;;;;5.34;100.00;101184.94;5018054;28;19925;-72
2023/02/22 01:53:32;;;;;;;111.63;31.70;;;;;;;5.41;100.00;101176.66;5012026;28;20045;-73
2023/02/22 01:55:59;;;;;;;118.72;31.88;;;;;;;5.40;100.00;101175.00;5018460;28;20034;-73
2023/02/22 01:58:29;;;;;;;117.43;33.58;;;;;;;5.36;100.00;101176.16;5006447;28;20025;-72
2023/02/22 02:00:56;;;;;;;109.13;30.77;;;;;;;5.36;100.00;101176.16;4987816;28;20030;-72
2023/02/22 02:03:26;;;;;;;99.35;31.67;;;;;;;5.23;100.00;101173.66;4991884;28;20038;-73
2023/02/22 02:05:54;;;;;;;97.55;32.03;;;;;;;5.31;100.00;101162.00;4992262;28;20125;-72
2023/02/22 02:08:34;;;;;;;105.22;32.33;;;;;;;5.22;100.00;101163.50;4992378;28;20042;-73
2023/02/22 02:11:06;;;;;;;150.18;32.90;;;;;;;5.33;100.00;101163.53;4983801;28;20050;-73
2023/02/22 02:13:34;;;;;;;114.32;32.33;;;;;;;5.25;100.00;101165.84;5002589;28;20049;-72
2023/02/22 02:15:59;;;;;;;115.13;33.78;;;;;;;5.19;100.00;101164.53;5003761;28;20047;-72
2023/02/22 02:18:28;;;;;;;117.70;33.90;;;;;;;5.21;100.00;101165.25;5021155;28;20042;-73
2023/02/22 02:21:31;;;;;;;101.22;30.10;;;;;;;5.14;100.00;101168.38;5007277;28;20034;-72
2023/02/22 02:24:27;;;;;;;119.80;34.67;;;;;;;5.16;100.00;101163.94;4992369;28;20041;-73
2023/02/22 02:27:17;;;;;;;99.30;29.10;;;;;;;5.17;100.00;101168.97;5004948;28;20049;-73
2023/02/22 02:29:57;;;;;;;119.95;32.40;;;;;;;5.40;100.00;101171.63;5006202;28;20030;-72
2023/02/22 02:32:59;;;;;;;106.95;32.03;;;;;;;5.28;100.00;101157.09;5002799;28;20112;-73
2023/02/22 02:35:31;;;;;;;108.25;34.35;;;;;;;5.18;100.00;101159.50;4995093;28;20073;-73
2023/02/22 02:38:33;;;;;;;109.72;32.88;;;;;;;5.28;100.00;101157.91;4985669;28;20037;-72
2023/02/22 02:41:13;;;;;;;111.45;31.50;;;;;;;5.26;100.00;101149.50;4991308;28;20107;-73
2023/02/22 02:43:54;;;;;;;112.05;31.65;;;;;;;5.16;100.00;101143.38;4990193;28;20037;-73
2023/02/22 02:46:26;;;;;;;110.25;31.83;;;;;;;5.20;100.00;101145.63;5006362;28;20034;-73
2023/02/22 02:48:56;;;;;;;96.87;31.13;;;;;;;5.10;100.00;101141.25;5004144;28;20492;-73
2023/02/22 02:51:27;;;;;;;109.80;32.35;;;;;;;5.12;100.00;101137.63;4990820;28;20038;-73
2023/02/22 03:05:51;;;;;;;84.50;26.58;;;;;;;4.96;100.00;101129.41;5002011;28;20122;-73
2023/02/22 03:08:43;;;;;;;101.53;28.08;;;;;;;4.99;100.00;101135.16;5008843;28;20034;-72
2023/02/22 03:11:23;;;;;;;113.30;28.60;;;;;;;4.97;100.00;101136.19;5007174;28;20121;-73
2023/02/22 03:14:07;;;;;;;87.40;28.17;;;;;;;4.91;100.00;101128.94;5004499;28;20088;-73
2023/02/22 03:16:56;;;;;;;96.25;25.23;;;;;;;4.99;100.00;101134.31;4984845;28;20061;-73
2023/02/22 03:19:35;;;;;;;90.10;26.05;;;;;;;4.92;100.00;101126.25;5008779;28;20087;-73
2023/02/22 03:22:12;;;;;;;84.85;23.88;;;;;;;4.88;100.00;101130.78;4976682;28;20092;-73
2023/02/22 03:24:54;;;;;;;79.43;25.83;;;;;;;4.88;100.00;101127.41;4988280;28;20034;-73
2023/02/22 03:27:25;;;;;;;;;;;;;;;4.85;100.00;101128.44;4992251;28;20165;-73
2023/02/22 03:29:59;;;;;;;109.50;25.20;;;;;;;4.80;100.00;101132.25;4987942;28;19914;-73
2023/02/22 03:32:30;;;;;;;93.30;24.40;;;;;;;4.82;100.00;101127.81;4979838;28;20042;-72
2023/02/22 03:35:06;;;;;;;86.05;25.83;;;;;;;4.74;100.00;101133.53;4996636;28;20030;-73
2023/02/22 03:37:39;;;;;;;93.10;26.45;;;;;;;4.73;100.00;101129.31;4988842;28;20041;-72
2023/02/22 03:40:15;;;;;;;88.30;25.77;;;;;;;4.66;100.00;101134.06;4991469;28;20492;-72
2023/02/22 03:42:49;;;;;;;83.13;26.38;;;;;;;4.73;100.00;101136.19;5006781;28;20034;-73
2023/02/22 03:45:18;;;;;;;82.43;24.55;;;;;;;4.74;100.00;101133.53;4988095;28;20561;-73
2023/02/22 03:47:50;;;;;;;92.35;26.00;;;;;;;4.65;100.00;101140.16;4989510;28;20429;-73
2023/02/22 03:50:30;;;;;;;88.95;25.83;;;;;;;4.68;100.00;101133.97;5008597;28;20025;-73
2023/02/22 03:52:59;;;;;;;79.30;24.20;;;;;;;4.70;100.00;101137.25;5011922;28;20451;-73
2023/02/22 03:55:27;;;;;;;99.15;26.50;;;;;;;4.64;100.00;101133.38;5008201;28;20051;-73
2023/02/22 03:58:04;;;;;;;77.32;25.05;;;;;;;4.60;100.00;101129.38;5000624;28;20046;-73
2023/02/22 04:00:33;;;;;;;71.22;24.80;;;;;;;4.60;100.00;101129.38;4984300;28;20213;-73
2023/02/22 04:03:00;;;;;;;77.43;25.20;;;;;;;4.63;100.00;101125.75;5001571;28;20026;-73
2023/02/22 04:05:26;;;;;;;80.88;24.98;;;;;;;4.68;100.00;101121.94;5003641;28;20045;-72
2023/02/22 04:07:52;;;;;;;80.63;24.55;;;;;;;4.66;100.00;101128.13;4985355;28;20112;-73
2023/02/22 04:10:19;;;;;;;83.32;24.40;;;;;;;4.66;100.00;101121.22;4987303;28;20492;-73
2023/02/22 04:12:44;;;;;;;107.15;26.48;;;;;;;4.66;100.00;101115.28;5001760;28;20037;-73
2023/02/22 04:15:20;;;;;;;84.93;25.02;;;;;;;4.67;100.00;101110.03;5004153;28;20040;-73
2023/02/22 04:17:47;;;;;;;94.13;28.02;;;;;;;4.74;100.00;101118.09;5016864;28;20073;-73
2023/02/22 04:20:18;;;;;;;91.28;26.40;;;;;;;4.79;100.00;101104.94;4996122;28;20030;-72
2023/02/22 04:22:54;;;;;;;98.15;28.70;;;;;;;4.71;100.00;101100.38;4988298;28;20045;-72
2023/02/22 04:25:22;;;;;;;82.95;24.13;;;;;;;4.67;100.00;101101.50;4998743;28;20038;-73
2023/02/22 04:27:49;;;;;;;87.07;24.23;;;;;;;4.68;100.00;101091.09;4998719;28;20034;-73
2023/02/22 04:30:19;;;;;;;83.40;24.13;;;;;;;4.66;100.00;101102.44;5001403;28;20038;-73
2023/02/22 04:32:45;;;;;;;79.70;25.38;;;;;;;4.58;100.00;101100.41;4997208;28;20037;-73
2023/02/22 04:35:12;;;;;;;85.00;26.02;;;;;;;4.67;100.00;101088.63;5002912;28;20031;-73
2023/02/22 04:37:38;;;;;;;87.05;26.55;;;;;;;4.69;100.00;101089.38;5007374;28;20041;-73
2023/02/22 04:40:06;;;;;;;90.13;25.00;;;;;;;4.74;100.00;101083.91;4991583;28;20033;-73
2023/02/22 04:42:34;;;;;;;90.78;26.73;;;;;;;4.65;100.00;101083.63;4990097;28;20488;-73
2023/02/22 04:45:01;;;;;;;90.65;28.08;;;;;;;4.68;100.00;101083.41;4995295;28;20042;-73
2023/02/22 04:47:27;;;;;;;78.40;23.15;;;;;;;4.57;100.00;101073.06;4985776;28;20108;-72
2023/02/22 04:49:52;;;;;;;75.05;24.77;;;;;;;4.52;100.00;101082.03;5008869;28;20602;-73
2023/02/22 04:52:18;;;;;;;83.28;25.35;;;;;;;4.51;100.00;101081.22;4988257;28;20037;-73
2023/02/22 04:54:44;;;;;;;94.32;27.67;;;;;;;4.60;100.00;101085.72;4984496;28;20077;-73
2023/02/22 04:57:10;;;;;;;91.63;26.35;;;;;;;4.67;100.00;101075.78;5002340;28;20034;-73
2023/02/22 04:59:35;;;;;;;91.68;26.77;;;;;;;4.65;100.00;101073.38;5008709;28;20499;-73
2023/02/22 05:02:01;;;;;;;81.05;24.73;;;;;;;4.60;100.00;101065.16;5006164;28;20395;-73
2023/02/22 05:04:28;;;;;;;78.00;26.13;;;;;;;4.57;100.00;101062.00;4986622;28;20030;-73
2023/02/22 05:06:54;;;;;;;91.47;25.92;;;;;;;4.59;100.00;101060.13;5003332;28;20508;-73
2023/02/22 05:09:19;;;;;;;79.68;25.52;;;;;;;4.49;100.00;101054.84;5004161;28;20041;-73
2023/02/22 05:11:44;;;;;;;79.10;27.77;;;;;;;4.42;100.00;101056.19;5001528;28;20407;-72
2023/02/22 05:14:10;;;;;;;90.57;28.42;;;;;;;4.47;100.00;101065.22;5003657;28;20037;-73
2023/02/22 05:16:36;;;;;;;85.22;27.88;;;;;;;4.49;100.00;101065.09;4999986;28;21042;-73
2023/02/22 05:19:02;;;;;;;75.03;26.42;;;;;;;4.46;100.00;101063.59;5002003;28;20025;-73
2023/02/22 05:21:27;;;;;;;101.15;27.85;;;;;;;4.46;100.00;101066.16;4987744;28;20558;-73
2023/02/22 05:23:52;;;;;;;88.90;28.60;;;;;;;4.46;100.00;101063.59;5009537;28;20484;-73
2023/02/22 05:26:18;;;;;;;93.15;27.10;;;;;;;4.46;100.00;101052.47;5008337;28;20037;-74
2023/02/22 05:28:44;;;;;;;92.60;27.73;;;;;;;4.47;100.00;101057.50;5008440;28;20084;-74
2023/02/22 05:31:09;;;;;;;84.63;28.70;;;;;;;4.48;100.00;101061.72;4995539;28;20399;-74
2023/02/22 05:33:35;;;;;;;96.25;27.65;;;;;;;4.49;100.00;101053.09;5010932;28;20037;-74
2023/02/22 05:36:01;;;;;;;84.07;27.58;;;;;;;4.52;100.00;101046.94;5009286;28;20521;-74
2023/02/22 05:38:27;;;;;;;86.53;26.05;;;;;;;4.70;100.00;101046.53;5007258;28;21544;-74
2023/02/22 05:40:52;;;;;;;91.75;27.67;;;;;;;4.60;100.00;101044.59;5000392;28;20428;-75
2023/02/22 05:43:18;;;;;;;91.00;27.83;;;;;;;4.58;100.00;101043.91;4990078;28;20030;-73
2023/02/22 05:45:43;;;;;;;83.05;27.77;;;;;;;4.56;100.00;101048.34;5004816;28;20052;-75
2023/02/22 05:48:09;;;;;;;88.55;27.80;;;;;;;4.58;100.00;101043.09;4992867;28;20037;-73
2023/02/22 05:50:34;;;;;;;79.85;26.38;;;;;;;4.56;100.00;101034.66;5009807;28;20050;-74
2023/02/22 05:53:00;;;;;;;91.47;31.15;;;;;;;4.45;100.00;101032.88;4994843;28;20034;-74
2023/02/22 05:55:26;;;;;;;96.03;31.77;;;;;;;4.45;100.00;101036.25;5016085;28;20034;-74
2023/02/22 05:57:52;;;;;;;78.55;26.75;;;;;;;4.50;100.00;101030.78;4994684;28;20033;-74
2023/02/22 06:00:23;;;;;;;82.05;25.42;;;;;;;4.40;100.00;101027.25;5010253;28;20044;-74
2023/02/22 06:03:03;;;;;;;85.13;27.65;;;;;;;4.40;100.00;101028.06;5014765;28;20140;-74
2023/02/22 06:05:29;;;;;;;68.57;24.88;;;;;;;4.32;100.00;101021.84;5007636;28;20041;-75
2023/02/22 06:07:55;;;;;;;76.93;25.98;;;;;;;4.35;100.00;101016.47;5009977;28;20476;-74
2023/02/22 06:10:22;;;;;;;79.78;27.08;;;;;;;4.29;100.00;101018.59;5003301;28;20462;-74
2023/02/22 06:12:48;;;;;;;76.63;25.73;;;;;;;4.25;100.00;101012.00;5006750;28;20037;-74
2023/02/22 06:15:15;;;;;;;88.95;28.02;;;;;;;4.32;100.00;101014.16;5006526;28;20072;-74
2023/02/22 06:17:41;;;;;;;77.07;25.63;;;;;;;4.34;100.00;101018.25;4988547;28;20030;-74
2023/02/22 06:20:09;;;;;;;81.30;26.52;;;;;;;4.39;100.00;101021.31;5007108;28;20499;-74
2023/02/22 06:22:34;;;;;;;90.95;30.23;;;;;;;4.33;100.00;101014.03;5004845;28;20058;-74
2023/02/22 06:25:02;;;;;;;87.55;27.23;;;;;;;4.36;100.00;101013.00;5004072;28;20056;-74
2023/02/22 06:27:31;;;;;;;101.72;29.17;;;;;;;4.32;100.00;101009.81;4990974;28;20033;-74
2023/02/22 06:29:58;;;;;;;91.47;26.80;;;;;;;4.29;100.00;101010.88;5010133;28;20031;-74
2023/02/22 06:32:24;;;;;;;80.80;25.10;;;;;;;4.16;100.00;101004.94;5004080;28;20050;-74
2023/02/22 06:34:50;;;;;;;83.57;26.67;;;;;;;4.23;100.00;101006.16;5012834;28;20030;-73
2023/02/22 06:37:15;;;;;;;83.53;27.25;;;;;;;4.17;100.00;101018.63;5008197;28;20041;-74
2023/02/22 06:39:41;;;;;;;88.88;29.75;;;;;;;4.09;100.00;101014.03;5003780;28;20034;-74
2023/02/22 06:42:06;;;;;;;85.65;27.10;;;;;;;4.11;100.00;101019.88;5003909;28;20484;-74
2023/02/22 06:44:32;;;;;;;71.53;25.98;;;;;;;4.04;100.00;101013.53;5002314;28;20034;-74
2023/02/22 06:46:58;;;;;;;75.70;27.02;;;;;;;4.13;100.00;101014.66;5003210;28;20034;-73
2023/02/22 06:49:25;;;;;;;69.30;25.58;;;;;;;4.05;100.00;101012.59;5008591;28;20037;-74
2023/02/22 06:51:51;;;;;;;62.78;24.70;;;;;;;4.04;100.00;101008.41;5004450;28;20034;-74
2023/02/22 06:54:16;;;;;;;68.47;25.48;;;;;;;4.09;100.00;101016.59;5012257;28;20396;-74
2023/02/22 06:56:42;;;;;;;64.57;23.90;;;;;;;4.04;100.00;101009.22;5006212;28;20042;-74
2023/02/22 06:59:07;;;;;;;65.85;25.73;;;;;;;4.08;100.00;101009.81;5004109;28;20028;-73
2023/02/22 07:01:33;;;;;;;60.67;25.60;;;;;;;4.15;100.00;101015.34;4990564;28;20042;-74
2023/02/22 07:03:58;;;;;;;63.92;25.50;;;;;;;4.05;100.00;101017.72;5010561;28;20421;-73
2023/02/22 07:06:24;;;;;;;59.00;25.25;;;;;;;4.06;100.00;101015.06;5001264;28;20511;-74
2023/02/22 07:08:49;;;;;;;67.07;25.80;;;;;;;4.10;100.00;101023.38;4987058;28;20046;-74
2023/02/22 07:11:16;;;;;;;68.80;24.83;;;;;;;4.06;100.00;101016.81;5002566;28;20064;-75
2023/02/22 07:13:41;;;;;;;69.25;25.33;;;;;;;4.05;100.00;101016.00;5002580;28;20034;-74
2023/02/22 07:16:07;;;;;;;73.47;25.73;;;;;;;4.05;100.00;101013.44;5008868;28;20057;-73
2023/02/22 07:18:32;;;;;;;72.90;26.67;;;;;;;4.04;100.00;101010.97;4992508;28;20043;-74
2023/02/22 07:20:58;;;;;;;69.45;26.55;;;;;;;4.10;100.00;101011.34;5006512;28;20057;-74
2023/02/22 07:23:23;;;;;;;71.43;25.70;;;;;;;4.12;100.00;101000.97;4994377;28;20021;-74
2023/02/22 07:25:49;;;;;;;74.93;25.73;;;;;;;4.20;100.00;101005.56;5004284;28;20076;-74
2023/02/22 07:28:14;;;;;;;66.07;24.35;;;;;;;4.19;100.00;101009.06;4997385;28;20096;-74
2023/02/22 07:30:40;;;;;;;70.60;26.13;;;;;;;4.20;100.00;101011.53;5021431;28;20069;-74
2023/02/22 07:33:08;;;;;;;73.57;26.17;;;;;;;4.35;100.00;101009.63;5003915;28;20090;-74
2023/02/22 07:35:45;;;;;;;77.28;25.67;;;;;;;4.32;100.00;101009.03;5007057;28;20030;-74
2023/02/22 07:38:12;;;;;;;82.97;31.35;;;;;;;4.29;100.00;101002.34;4991120;28;20018;-74
2023/02/22 07:40:39;;;;;;;70.28;27.55;;;;;;;4.34;100.00;101013.09;5000464;28;20034;-74
2023/02/22 07:43:13;;;;;;;74.57;27.85;;;;;;;4.38;100.00;101011.13;4990456;28;20033;-74
2023/02/22 07:45:39;;;;;;;97.43;30.42;;;;;;;4.27;100.00;100999.88;5004689;28;20057;-74
2023/02/22 07:48:05;;;;;;;76.05;29.42;;;;;;;4.36;100.00;101000.16;5005825;28;20491;-74
2023/02/22 07:50:32;;;;;;;83.15;28.92;;;;;;;4.41;100.00;100996.31;4986490;28;20038;-74
2023/02/22 07:53:01;;;;;;;88.60;28.27;;;;;;;4.41;100.00;101001.47;4998634;28;20069;-74
2023/02/22 07:55:28;;;;;;;83.07;28.65;;;;;;;4.40;100.00;100996.44;5008446;28;20078;-74
2023/02/22 07:57:56;;;;;;;88.10;30.75;;;;;;;4.42;100.00;100995.38;5004942;28;20459;-75
2023/02/22 08:00:26;;;;;;;90.85;29.70;;;;;;;4.48;100.00;100986.41;4998855;28;20081;-74
2023/02/22 08:02:52;;;;;;;86.03;32.03;;;;;;;4.62;100.00;100991.38;4997760;28;20030;-73
2023/02/22 08:05:19;;;;;;;90.05;32.10;;;;;;;4.63;100.00;100994.75;4988061;28;20050;-74
2023/02/22 08:07:45;;;;;;;85.05;30.92;;;;;;;4.64;100.00;100988.69;4984995;28;20164;-73
2023/02/22 08:10:13;;;;;;;97.43;33.05;;;;;;;4.80;100.00;100984.06;5007760;28;20033;-74
2023/02/22 08:12:38;;;;;;;76.45;28.92;;;;;;;4.79;100.00;100977.28;5007030;28;20030;-74
2023/02/22 08:15:06;;;;;;;81.75;30.42;;;;;;;4.83;100.00;100975.31;5008377;28;20065;-73
2023/02/22 08:17:31;;;;;;;81.93;30.35;;;;;;;4.94;100.00;100969.38;5003465;28;20034;-74
2023/02/22 08:19:57;;;;;;;92.07;32.83;;;;;;;4.94;100.00;100967.63;5010468;28;20036;-75
2023/02/22 08:22:23;;;;;;;80.78;30.30;;;;;;;4.97;100.00;100967.41;5003754;28;20046;-74
2023/02/22 08:24:52;;;;;;;75.32;30.42;;;;;;;5.03;100.00;100966.94;5013567;28;20467;-74
2023/02/22 08:27:25;;;;;;;90.57;30.98;;;;;;;5.12;100.00;100970.53;4991512;28;20069;-74
2023/02/22 08:29:51;;;;;;;;;;;;;;;5.19;100.00;100969.13;4991579;28;20054;-74
2023/02/22 08:32:16;;;;;;;80.85;29.15;;;;;;;5.30;100.00;100965.75;5009383;28;19953;-74
2023/02/22 08:34:43;;;;;;;72.82;27.92;;;;;;;5.43;100.00;100957.94;4998948;28;20022;-74
2023/02/22 08:37:09;;;;;;;77.45;28.35;;;;;;;5.56;100.00;100957.78;4988200;28;20030;-75
2023/02/22 08:39:35;;;;;;;72.25;27.98;;;;;;;5.60;100.00;100957.44;4989621;28;20034;-74
2023/02/22 08:42:00;;;;;;;74.30;30.48;;;;;;;5.79;100.00;100953.41;5000170;28;20044;-74
2023/02/22 08:44:26;;;;;;;70.40;27.75;;;;;;;5.98;100.00;100951.03;5005645;28;20029;-74
2023/02/22 08:46:51;;;;;;;67.50;25.73;;;;;;;6.00;100.00;100954.31;4993343;28;20778;-74
2023/02/22 08:49:17;;;;;;;68.63;27.33;;;;;;;6.12;100.00;100954.25;4999606;28;20030;-74
2023/02/22 08:51:42;;;;;;;64.05;25.02;;;;;;;6.21;100.00;100953.53;4988720;28;20496;-74
2023/02/22 08:54:08;;;;;;;72.18;30.17;;;;;;;6.30;100.00;100952.78;5004250;28;20048;-73
2023/02/22 08:56:33;;;;;;;67.20;26.20;;;;;;;6.48;100.00;100949.66;4990228;28;20105;-74
2023/02/22 08:58:59;;;;;;;69.13;25.90;;;;;;;6.64;100.00;100952.59;4999565;28;20095;-74
2023/02/22 09:01:25;;;;;;;63.55;25.48;;;;;;;6.76;100.00;100951.59;5010974;28;20041;-74
2023/02/22 09:03:50;;;;;;;57.42;24.15;;;;;;;6.88;100.00;100952.34;4995858;28;20483;-74
2023/02/22 09:06:18;;;;;;;62.30;25.90;;;;;;;7.01;100.00;100954.72;4992620;28;20030;-73
2023/02/22 09:08:44;;;;;;;53.45;22.33;;;;;;;7.12;100.00;100957.22;4995126;28;20091;-74
2023/02/22 09:11:09;;;;;;;51.88;22.10;;;;;;;7.21;100.00;100953.84;5007283;28;20494;-73
2023/02/22 09:13:34;;;;;;;48.22;21.02;;;;;;;7.22;100.00;100950.31;5014855;28;20032;-74
2023/02/22 09:16:00;;;;;;;49.92;21.70;;;;;;;7.34;100.00;100955.38;5007172;28;20038;-74
2023/02/22 09:18:27;;;;;;;47.25;20.92;;;;;;;7.31;100.00;100953.03;4989915;28;20026;-74
2023/02/22 09:20:53;;;;;;;47.85;20.88;;;;;;;7.41;100.00;100941.81;5010373;28;20048;-73
2023/02/22 09:23:19;;;;;;;50.65;22.23;;;;;;;7.57;100.00;100941.31;5005440;28;20034;-73
2023/02/22 09:25:46;;;;;;;53.22;21.17;;;;;;;7.66;100.00;100933.72;5010642;28;20046;-74
2023/02/22 09:28:12;;;;;;;43.05;18.88;;;;;;;7.73;100.00;100937.41;5009651;28;20037;-74
2023/02/22 09:30:38;;;;;;;48.30;19.80;;;;;;;7.65;100.00;100926.91;5006456;28;20042;-75
2023/02/22 09:33:09;;;;;;;42.10;19.23;;;;;;;7.71;100.00;100928.97;5005608;28;20489;-74
2023/02/22 09:35:35;;;;;;;46.03;19.38;;;;;;;7.67;100.00;100918.09;5013572;28;20037;-74
2023/02/22 09:38:03;;;;;;;44.60;19.67;;;;;;;7.66;100.00;100918.25;5004919;28;20045;-74
2023/02/22 09:40:31;;;;;;;46.00;19.75;;;;;;;7.78;100.00;100917.97;4992490;28;20034;-74
2023/02/22 09:43:14;;;;;;;47.55;19.75;;;;;;;7.87;100.00;100913.75;5014509;28;20033;-74
2023/02/22 09:46:19;;;;;;;47.47;20.58;;;;;;;7.92;100.00;100914.19;5009468;28;20500;-74
2023/02/22 09:49:04;;;;;;;45.30;19.70;;;;;;;8.09;100.00;100910.09;5010567;28;20033;-74
2023/02/22 09:51:37;;;;;;;46.45;20.13;;;;;;;8.16;100.00;100908.59;5024673;28;20041;-74
2023/02/22 09:54:10;;;;;;;45.17;19.25;;;;;;;8.28;100.00;100909.25;5014542;28;20037;-74
2023/02/22 09:56:36;;;;;;;48.00;18.98;;;;;;;8.36;99.57;100901.66;5011671;28;20581;-74
2023/02/22 09:59:06;;;;;;;42.30;17.75;;;;;;;8.45;99.72;100905.19;5009318;28;20038;-74
2023/02/22 10:01:42;;;;;;;43.20;19.33;;;;;;;8.50;99.01;100899.63;5014250;28;20046;-74
2023/02/22 10:04:29;;;;;;;41.15;18.65;;;;;;;8.48;97.79;100897.16;4999482;28;20026;-74
2023/02/22 10:06:55;;;;;;;42.38;19.30;;;;;;;8.55;99.00;100907.75;5006811;28;20030;-74
2023/02/22 10:09:26;;;;;;;44.38;20.02;;;;;;;8.75;99.22;100893.00;5008788;28;20397;-74
2023/02/22 10:12:01;;;;;;;37.97;17.15;;;;;;;8.74;97.93;100889.59;5009449;28;20544;-75
2023/02/22 10:15:06;;;;;;;41.60;16.85;;;;;;;8.87;98.04;100885.88;4996051;28;20455;-74
2023/02/22 10:17:51;;;;;;;45.55;18.98;;;;;;;8.81;97.22;100887.25;5017844;28;20041;-74
2023/02/22 10:20:20;;;;;;;43.72;18.23;;;;;;;8.87;98.14;100880.69;4997582;28;20045;-75
2023/02/22 10:23:00;;;;;;;44.22;19.38;;;;;;;8.95;98.26;100880.81;5006308;28;20043;-74
2023/02/22 10:25:29;;;;;;;42.17;18.52;;;;;;;9.05;97.11;100876.41;5003545;28;20065;-74
2023/02/22 10:27:54;;;;;;;46.78;19.52;;;;;;;9.07;97.78;100876.25;4993821;28;20026;-74
2023/02/22 10:30:33;;;;;;;39.97;17.90;;;;;;;9.15;96.52;100874.59;5007124;28;20043;-74
2023/02/22 10:33:08;;;;;;;39.17;16.73;;;;;;;9.34;93.56;100878.00;4992552;28;20571;-74
2023/02/22 10:35:36;;;;;;;38.30;15.95;;;;;;;9.42;94.29;100865.16;4985218;28;20038;-74
2023/02/22 10:38:17;;;;;;;43.47;17.33;;;;;;;9.52;95.09;100859.91;4976105;28;20403;-75
2023/02/22 10:40:48;;;;;;;40.40;17.90;;;;;;;9.74;93.82;100863.84;4990353;28;20041;-74
2023/02/22 10:43:14;;;;;;;36.22;16.45;;;;;;;9.64;93.20;100865.66;4975001;28;20026;-74
2023/02/22 10:45:39;;;;;;;33.50;15.93;;;;;;;9.74;93.05;100863.84;4988872;28;20580;-74
2023/02/22 10:48:13;;;;;;;37.50;16.05;;;;;;;9.80;92.80;100867.59;4977570;28;20043;-74
2023/02/22 10:50:41;;;;;;;33.40;14.90;;;;;;;9.84;91.07;100863.75;4971268;28;20404;-74
2023/02/22 10:53:09;;;;;;;34.03;15.70;;;;;;;9.96;91.38;100869.50;4986349;28;20481;-74
2023/02/22 10:55:35;;;;;;;31.33;15.00;;;;;;;9.96;89.94;100862.53;4983518;28;20042;-74
2023/02/22 10:58:05;;;;;;;32.05;15.13;;;;;;;9.99;90.07;100866.63;4987254;28;20037;-74
2023/02/22 11:00:37;;;;;;;33.92;15.15;;;;;;;10.06;90.00;100859.88;4986933;28;20493;-74
2023/02/22 11:03:23;;;;;;;36.47;15.87;;;;;;;10.04;90.47;100862.63;4971740;28;20555;-75
2023/02/22 11:05:49;;;;;;;34.33;15.20;;;;;;;10.18;89.78;100855.25;4982761;28;20070;-74
2023/02/22 11:08:33;;;;;;;32.03;14.82;;;;;;;10.25;89.66;100843.31;4987827;28;20543;-74
2023/02/22 11:11:19;;;;;;;33.17;14.30;;;;;;;10.41;88.63;100850.41;4992967;28;20030;-74
2023/02/22 11:13:56;;;;;;;32.13;16.30;;;;;;;10.50;87.72;100842.50;4986633;28;20057;-73
2023/02/22 11:16:36;;;;;;;33.08;14.30;;;;;;;10.60;86.94;100850.16;4990362;28;20034;-74
2023/02/22 11:19:14;;;;;;;26.77;13.32;;;;;;;10.63;86.51;100839.50;4995123;28;20707;-75
2023/02/22 11:21:40;;;;;;;36.13;15.73;;;;;;;10.77;86.78;100845.06;4986475;28;20044;-74
2023/02/22 11:24:10;;;;;;;28.20;14.00;;;;;;;10.87;85.39;100843.19;4967882;28;20046;-73
2023/02/22 11:26:42;;;;;;;33.63;15.13;;;;;;;10.87;84.88;100849.16;4981998;28;20042;-74
2023/02/22 11:29:21;;;;;;;28.40;12.70;;;;;;;10.85;85.65;100840.75;5009204;28;20041;-74
2023/02/22 11:31:50;;;;;;;31.75;12.82;;;;;;;11.01;85.38;100846.94;4986760;28;20037;-74
2023/02/22 11:34:37;;;;;;;31.25;14.18;;;;;;;11.08;84.06;100840.97;4969576;28;20038;-74